createdAt,value
2022-08-02T06:47:13.087Z,13.77
2022-08-02T06:57:38.177Z,11.77
2022-08-02T07:02:59.820Z,9.50
2022-08-02T07:08:03.615Z,13.27
2022-08-02T07:13:06.568Z,10.03
2022-08-02T07:18:14.999Z,9.90
2022-08-02T07:23:18.128Z,9.77
2022-08-02T07:28:24.623Z,7.53
2022-08-02T07:33:38.931Z,10.53
2022-08-02T07:38:41.984Z,7.20
2022-08-02T07:43:44.805Z,11.13
2022-08-02T07:48:48.988Z,6.10
2022-08-02T07:54:02.666Z,8.23
2022-08-02T07:59:10.491Z,6.57
2022-08-02T08:04:13.594Z,9.27
2022-08-02T08:09:16.524Z,7.83
2022-08-02T08:14:19.335Z,7.70
2022-08-02T08:19:22.125Z,11.47
2022-08-02T08:24:45.432Z,8.47
2022-08-02T08:29:48.753Z,9.33
2022-08-02T08:34:51.558Z,7.47
2022-08-02T08:39:57.945Z,6.43
2022-08-02T08:45:01.660Z,8.00
2022-08-02T08:50:06.553Z,5.73
2022-08-02T08:55:15.212Z,4.90
2022-08-02T09:00:18.310Z,5.27
2022-08-02T09:05:21.173Z,5.70
2022-08-02T09:10:39.024Z,4.73
2022-08-02T09:15:42.868Z,4.40
2022-08-02T09:20:57.619Z,3.20
2022-08-02T09:26:07.450Z,3.90
2022-08-02T09:31:15.760Z,4.50
2022-08-02T09:36:18.703Z,6.35
2022-08-02T09:41:24.520Z,3.80
2022-08-02T09:46:30.572Z,4.38
2022-08-02T09:51:35.570Z,3.42
2022-08-02T09:56:56.799Z,13.90
2022-08-02T10:02:17.516Z,4.97
2022-08-02T10:07:23.597Z,4.10
2022-08-02T10:12:26.707Z,3.97
2022-08-02T10:17:29.999Z,4.60
2022-08-02T10:22:35.736Z,3.63
2022-08-02T10:28:02.992Z,4.15
2022-08-02T10:33:03.565Z,3.75
2022-08-02T10:38:12.630Z,7.40
2022-08-02T10:43:38.369Z,3.13
2022-08-02T10:54:38.875Z,4.70
2022-08-02T10:59:41.803Z,3.95
2022-08-02T11:04:47.312Z,3.35
2022-08-02T11:09:51.842Z,4.43
2022-08-02T11:15:07.563Z,4.00
2022-08-02T11:20:15.469Z,4.75
2022-08-02T11:25:24.274Z,2.72
2022-08-02T11:30:27.698Z,2.50
2022-08-02T11:35:39.158Z,3.67
2022-08-02T11:40:43.180Z,3.80
2022-08-02T11:45:46.237Z,2.72
2022-08-02T11:50:48.998Z,4.05
2022-08-02T11:55:57.673Z,2.47
2022-08-02T12:01:00.495Z,2.70
2022-08-02T12:06:06.943Z,2.42
2022-08-02T12:11:22.454Z,2.30
2022-08-02T12:16:44.297Z,2.72
2022-08-02T12:21:47.833Z,2.40
2022-08-02T12:26:50.583Z,3.28
2022-08-02T12:31:56.075Z,2.42
2022-08-02T12:37:07.845Z,4.25
2022-08-02T12:42:13.955Z,2.38
2022-08-02T12:47:17.703Z,2.83
2022-08-02T12:52:25.368Z,2.53
2022-08-02T12:57:28.291Z,5.55
2022-08-02T13:02:31.682Z,2.55
2022-08-02T13:07:34.382Z,6.13
2022-08-02T13:12:39.551Z,3.40
2022-08-02T13:17:42.536Z,2.80
2022-08-02T13:22:52.946Z,2.45
2022-08-02T13:27:56.407Z,2.75
2022-08-02T13:33:01.334Z,3.13
2022-08-02T13:38:04.617Z,3.40
2022-08-02T13:43:07.414Z,3.33
2022-08-02T13:48:16.607Z,2.25
2022-08-02T13:53:22.927Z,3.17
2022-08-02T13:58:25.800Z,4.53
2022-08-02T14:04:07.971Z,2.70
2022-08-02T14:08:52.630Z,3.63
2022-08-02T14:13:55.284Z,2.65
2022-08-02T14:18:58.133Z,3.22
2022-08-02T14:24:01.002Z,4.40
2022-08-02T14:29:04.253Z,3.28
2022-08-02T14:34:07.237Z,3.72
2022-08-02T14:39:10.478Z,3.50
2022-08-02T14:44:13.214Z,3.75
2022-08-02T14:49:24.863Z,6.15
2022-08-02T14:54:31.624Z,4.10
2022-08-02T14:59:34.394Z,3.25
2022-08-02T15:04:42.809Z,2.80
2022-08-02T15:09:46.559Z,4.90
2022-08-02T15:14:49.392Z,8.57
2022-08-02T15:19:57.590Z,3.75
2022-08-02T15:25:15.587Z,2.60
2022-08-02T15:30:19.399Z,3.08
2022-08-02T15:35:22.405Z,2.90
2022-08-02T15:40:25.198Z,3.03
2022-08-02T15:45:28.046Z,3.08
2022-08-02T15:50:30.825Z,3.90
2022-08-02T15:55:52.135Z,3.28
2022-08-02T16:00:56.836Z,2.88
2022-08-02T16:05:59.747Z,4.57
2022-08-02T16:11:02.453Z,3.33
2022-08-02T16:16:05.502Z,4.93
2022-08-02T16:21:08.299Z,4.68
2022-08-02T16:26:11.116Z,6.45
2022-08-02T16:31:13.963Z,2.50
2022-08-02T16:36:19.616Z,6.45
2022-08-02T16:41:23.782Z,4.10
2022-08-02T16:46:46.570Z,4.38
2022-08-02T16:51:54.202Z,3.38
2022-08-02T16:56:57.117Z,5.90
2022-08-02T17:02:11.207Z,2.55
2022-08-02T17:08:15.519Z,6.18
2022-08-02T17:12:38.510Z,5.28
2022-08-02T17:17:42.153Z,3.65
2022-08-02T17:22:46.148Z,3.80
2022-08-02T17:27:55.745Z,2.90
2022-08-02T17:32:59.409Z,2.90
2022-08-02T17:38:02.282Z,3.10
2022-08-02T17:43:14.765Z,3.17
2022-08-02T17:48:19.479Z,4.50
2022-08-02T17:53:36.225Z,4.97
2022-08-02T17:58:39.264Z,5.45
2022-08-02T18:03:54.824Z,4.82
2022-08-02T18:08:57.738Z,5.38
2022-08-02T18:14:00.568Z,4.72
2022-08-02T18:19:04.522Z,6.30
2022-08-02T18:24:13.225Z,6.47
2022-08-02T18:29:16.067Z,5.03
2022-08-02T18:34:24.368Z,4.53
2022-08-02T18:39:27.283Z,8.68
2022-08-02T18:44:35.962Z,4.97
2022-08-02T18:49:46.344Z,3.97
2022-08-02T18:54:50.703Z,7.95
2022-08-02T18:59:53.487Z,5.25
2022-08-02T19:04:56.421Z,10.85
2022-08-02T19:09:59.479Z,4.18
2022-08-02T19:15:02.380Z,4.18
2022-08-02T19:20:06.473Z,5.10
2022-08-02T19:25:16.040Z,6.20
2022-08-02T19:30:21.340Z,5.30
2022-08-02T19:35:31.634Z,5.57
2022-08-02T19:40:39.871Z,4.70
2022-08-02T19:45:50.045Z,4.37
2022-08-02T19:50:56.546Z,8.30
2022-08-02T19:56:04.418Z,5.67
2022-08-02T20:01:07.801Z,6.10
2022-08-02T20:06:20.114Z,9.67
2022-08-02T20:11:35.064Z,7.03
2022-08-02T20:16:38.504Z,5.30
2022-08-02T20:21:52.907Z,7.33
2022-08-02T20:27:00.454Z,5.47
2022-08-02T20:32:04.005Z,6.43
2022-08-02T20:37:59.455Z,10.07
2022-08-02T20:42:29.997Z,10.07
2022-08-02T20:47:40.046Z,23.60
2022-08-02T20:52:43.137Z,7.97
2022-08-02T20:58:00.428Z,7.73
2022-08-02T21:03:05.517Z,7.47
2022-08-02T21:08:13.869Z,7.00
2022-08-02T21:13:18.783Z,6.20
2022-08-02T21:18:25.264Z,7.30
2022-08-02T21:23:38.532Z,5.90
2022-08-02T21:28:51.526Z,7.40
2022-08-02T21:33:59.387Z,8.07
2022-08-02T21:39:08.719Z,8.47
2022-08-02T21:44:30.093Z,8.20
2022-08-02T21:50:09.776Z,8.27
2022-08-02T21:54:56.551Z,8.03
2022-08-02T21:59:59.331Z,8.00
2022-08-02T22:05:03.231Z,9.73
2022-08-02T22:10:09.083Z,7.47
2022-08-02T22:15:12.159Z,9.13
2022-08-02T22:20:19.665Z,10.13
2022-08-02T22:25:36.736Z,13.83
2022-08-02T22:30:40.955Z,8.67
2022-08-02T22:35:43.945Z,8.97
2022-08-02T22:40:53.684Z,7.83
2022-08-02T22:45:57.904Z,9.60
2022-08-02T22:51:00.709Z,10.17
2022-08-02T22:56:04.643Z,8.73
2022-08-02T23:01:07.874Z,6.50
2022-08-02T23:06:10.739Z,8.80
2022-08-02T23:11:14.408Z,6.33
2022-08-02T23:16:39.770Z,7.27
2022-08-02T23:22:01.629Z,9.53
2022-08-02T23:27:05.264Z,9.23
2022-08-02T23:32:08.425Z,12.10
2022-08-02T23:37:12.042Z,10.20
2022-08-02T23:42:14.973Z,9.57
2022-08-02T23:47:18.099Z,7.63
2022-08-02T23:52:20.879Z,9.47
2022-08-02T23:57:23.803Z,8.10
